sensor_id;sensor_type;location;lat;lon;timestamp;P1;durP1;ratioP1;P2;durP2;ratioP2
5345;SDS011;2695;49.444;11.054;2023-03-17T00:00:39;5.23;;;3.57;;
5345;SDS011;2695;49.444;11.054;2023-03-17T00:03:10;5.07;;;3.20;;
5345;SDS011;2695;49.444;11.054;2023-03-17T00:05:45;4.60;;;2.73;;
5345;SDS011;2695;49.444;11.054;2023-03-17T00:08:14;5.00;;;2.47;;
5345;SDS011;2695;49.444;11.054;2023-03-17T00:10:47;5.10;;;2.80;;
5345;SDS011;2695;49.444;11.054;2023-03-17T00:13:16;2.60;;;2.10;;
5345;SDS011;2695;49.444;11.054;2023-03-17T00:15:44;3.67;;;2.27;;
5345;SDS011;2695;49.444;11.054;2023-03-17T00:18:16;2.90;;;2.57;;
5345;SDS011;2695;49.444;11.054;2023-03-17T00:20:46;3.80;;;2.60;;
5345;SDS011;2695;49.444;11.054;2023-03-17T00:23:15;4.10;;;2.40;;
5345;SDS011;2695;49.444;11.054;2023-03-17T00:25:46;3.40;;;2.40;;
5345;SDS011;2695;49.444;11.054;2023-03-17T00:28:16;3.30;;;2.27;;
5345;SDS011;2695;49.444;11.054;2023-03-17T00:30:46;4.40;;;2.10;;
5345;SDS011;2695;49.444;11.054;2023-03-17T00:33:16;4.57;;;2.37;;
5345;SDS011;2695;49.444;11.054;2023-03-17T00:35:45;2.90;;;1.87;;
5345;SDS011;2695;49.444;11.054;2023-03-17T00:38:13;3.80;;;2.17;;
5345;SDS011;2695;49.444;11.054;2023-03-17T00:40:43;7.00;;;2.70;;
5345;SDS011;2695;49.444;11.054;2023-03-17T00:43:14;3.20;;;2.20;;
5345;SDS011;2695;49.444;11.054;2023-03-17T00:45:42;4.70;;;2.47;;
5345;SDS011;2695;49.444;11.054;2023-03-17T00:48:11;2.60;;;2.00;;
5345;SDS011;2695;49.444;11.054;2023-03-17T00:50:43;4.40;;;2.43;;
5345;SDS011;2695;49.444;11.054;2023-03-17T00:53:12;4.30;;;2.53;;
5345;SDS011;2695;49.444;11.054;2023-03-17T00:55:42;4.50;;;3.00;;
5345;SDS011;2695;49.444;11.054;2023-03-17T00:58:11;5.30;;;3.37;;
5345;SDS011;2695;49.444;11.054;2023-03-17T01:00:42;4.27;;;2.63;;
5345;SDS011;2695;49.444;11.054;2023-03-17T01:03:11;4.20;;;3.10;;
5345;SDS011;2695;49.444;11.054;2023-03-17T01:05:40;3.53;;;2.40;;
5345;SDS011;2695;49.444;11.054;2023-03-17T01:08:09;5.40;;;2.93;;
5345;SDS011;2695;49.444;11.054;2023-03-17T01:10:38;4.00;;;3.10;;
5345;SDS011;2695;49.444;11.054;2023-03-17T01:13:06;6.63;;;3.23;;
5345;SDS011;2695;49.444;11.054;2023-03-17T01:15:34;5.57;;;2.67;;
5345;SDS011;2695;49.444;11.054;2023-03-17T01:18:10;4.43;;;2.87;;
5345;SDS011;2695;49.444;11.054;2023-03-17T01:20:41;4.77;;;2.90;;
5345;SDS011;2695;49.444;11.054;2023-03-17T01:23:11;3.47;;;2.73;;
5345;SDS011;2695;49.444;11.054;2023-03-17T01:25:40;5.87;;;3.23;;
5345;SDS011;2695;49.444;11.054;2023-03-17T01:28:11;3.93;;;2.77;;
5345;SDS011;2695;49.444;11.054;2023-03-17T01:30:41;3.63;;;2.77;;
5345;SDS011;2695;49.444;11.054;2023-03-17T01:33:09;6.10;;;3.33;;
5345;SDS011;2695;49.444;11.054;2023-03-17T01:35:40;2.90;;;2.43;;
5345;SDS011;2695;49.444;11.054;2023-03-17T01:38:12;4.90;;;3.03;;
5345;SDS011;2695;49.444;11.054;2023-03-17T01:40:41;4.57;;;3.40;;
5345;SDS011;2695;49.444;11.054;2023-03-17T01:43:20;5.50;;;2.87;;
5345;SDS011;2695;49.444;11.054;2023-03-17T01:48:55;3.90;;;2.60;;
5345;SDS011;2695;49.444;11.054;2023-03-17T01:51:32;4.63;;;2.50;;
5345;SDS011;2695;49.444;11.054;2023-03-17T01:54:07;5.47;;;3.33;;
5345;SDS011;2695;49.444;11.054;2023-03-17T01:56:39;3.57;;;2.77;;
5345;SDS011;2695;49.444;11.054;2023-03-17T01:59:10;2.93;;;2.50;;
5345;SDS011;2695;49.444;11.054;2023-03-17T02:01:43;5.13;;;2.80;;
5345;SDS011;2695;49.444;11.054;2023-03-17T02:04:14;3.50;;;2.43;;
5345;SDS011;2695;49.444;11.054;2023-03-17T02:06:44;4.10;;;2.47;;
5345;SDS011;2695;49.444;11.054;2023-03-17T02:09:25;5.80;;;2.13;;
5345;SDS011;2695;49.444;11.054;2023-03-17T02:11:54;4.30;;;2.53;;
5345;SDS011;2695;49.444;11.054;2023-03-17T02:14:25;5.90;;;3.27;;
5345;SDS011;2695;49.444;11.054;2023-03-17T02:16:53;8.03;;;3.20;;
5345;SDS011;2695;49.444;11.054;2023-03-17T02:19:21;4.50;;;3.07;;
5345;SDS011;2695;49.444;11.054;2023-03-17T02:21:50;2.33;;;1.80;;
5345;SDS011;2695;49.444;11.054;2023-03-17T02:24:30;3.70;;;2.50;;
5345;SDS011;2695;49.444;11.054;2023-03-17T02:27:03;13.10;;;3.33;;
5345;SDS011;2695;49.444;11.054;2023-03-17T02:29:34;4.00;;;2.80;;
5345;SDS011;2695;49.444;11.054;2023-03-17T02:32:03;6.00;;;3.80;;
5345;SDS011;2695;49.444;11.054;2023-03-17T02:34:32;4.53;;;3.23;;
5345;SDS011;2695;49.444;11.054;2023-03-17T02:37:02;4.60;;;3.00;;
5345;SDS011;2695;49.444;11.054;2023-03-17T02:39:30;8.10;;;3.07;;
5345;SDS011;2695;49.444;11.054;2023-03-17T02:41:58;7.17;;;3.07;;
5345;SDS011;2695;49.444;11.054;2023-03-17T02:44:26;3.13;;;2.33;;
5345;SDS011;2695;49.444;11.054;2023-03-17T02:46:54;5.30;;;3.03;;
5345;SDS011;2695;49.444;11.054;2023-03-17T02:49:23;5.47;;;3.50;;
5345;SDS011;2695;49.444;11.054;2023-03-17T02:51:52;8.40;;;3.80;;
5345;SDS011;2695;49.444;11.054;2023-03-17T02:54:22;4.17;;;3.20;;
5345;SDS011;2695;49.444;11.054;2023-03-17T02:56:50;6.53;;;3.70;;
5345;SDS011;2695;49.444;11.054;2023-03-17T02:59:18;12.80;;;3.33;;
5345;SDS011;2695;49.444;11.054;2023-03-17T03:01:46;3.40;;;2.60;;
5345;SDS011;2695;49.444;11.054;2023-03-17T03:04:18;3.80;;;2.30;;
5345;SDS011;2695;49.444;11.054;2023-03-17T03:06:46;5.30;;;3.20;;
5345;SDS011;2695;49.444;11.054;2023-03-17T03:09:14;4.50;;;3.37;;
5345;SDS011;2695;49.444;11.054;2023-03-17T03:11:44;3.13;;;2.73;;
5345;SDS011;2695;49.444;11.054;2023-03-17T03:14:13;3.17;;;2.73;;
5345;SDS011;2695;49.444;11.054;2023-03-17T03:16:41;5.63;;;3.00;;
5345;SDS011;2695;49.444;11.054;2023-03-17T03:19:09;2.40;;;2.20;;
5345;SDS011;2695;49.444;11.054;2023-03-17T03:21:38;2.83;;;2.13;;
5345;SDS011;2695;49.444;11.054;2023-03-17T03:24:06;3.80;;;3.10;;
5345;SDS011;2695;49.444;11.054;2023-03-17T03:26:34;3.30;;;2.30;;
5345;SDS011;2695;49.444;11.054;2023-03-17T03:29:04;4.93;;;2.83;;
5345;SDS011;2695;49.444;11.054;2023-03-17T03:31:34;3.70;;;2.30;;
5345;SDS011;2695;49.444;11.054;2023-03-17T03:34:02;5.70;;;2.60;;
5345;SDS011;2695;49.444;11.054;2023-03-17T03:36:30;3.30;;;2.67;;
5345;SDS011;2695;49.444;11.054;2023-03-17T03:38:58;4.70;;;2.70;;
5345;SDS011;2695;49.444;11.054;2023-03-17T03:41:27;3.37;;;2.50;;
5345;SDS011;2695;49.444;11.054;2023-03-17T03:43:55;3.53;;;2.57;;
5345;SDS011;2695;49.444;11.054;2023-03-17T03:46:24;4.50;;;2.57;;
5345;SDS011;2695;49.444;11.054;2023-03-17T03:48:53;3.23;;;2.57;;
5345;SDS011;2695;49.444;11.054;2023-03-17T03:51:21;3.57;;;2.07;;
5345;SDS011;2695;49.444;11.054;2023-03-17T03:53:49;5.97;;;2.53;;
5345;SDS011;2695;49.444;11.054;2023-03-17T03:56:17;2.67;;;2.20;;
5345;SDS011;2695;49.444;11.054;2023-03-17T03:58:45;2.87;;;2.23;;
5345;SDS011;2695;49.444;11.054;2023-03-17T04:01:12;5.10;;;2.63;;
5345;SDS011;2695;49.444;11.054;2023-03-17T04:03:42;4.13;;;1.90;;
5345;SDS011;2695;49.444;11.054;2023-03-17T04:06:12;3.40;;;2.20;;
5345;SDS011;2695;49.444;11.054;2023-03-17T04:08:41;2.80;;;2.03;;
5345;SDS011;2695;49.444;11.054;2023-03-17T04:11:09;1.80;;;1.70;;
5345;SDS011;2695;49.444;11.054;2023-03-17T04:13:37;4.77;;;2.93;;
5345;SDS011;2695;49.444;11.054;2023-03-17T04:16:05;6.10;;;2.50;;
5345;SDS011;2695;49.444;11.054;2023-03-17T04:18:34;8.63;;;2.97;;
5345;SDS011;2695;49.444;11.054;2023-03-17T04:21:03;5.17;;;3.50;;
5345;SDS011;2695;49.444;11.054;2023-03-17T04:23:33;9.97;;;2.70;;
5345;SDS011;2695;49.444;11.054;2023-03-17T04:26:01;4.80;;;3.57;;
5345;SDS011;2695;49.444;11.054;2023-03-17T04:28:30;7.27;;;3.57;;
5345;SDS011;2695;49.444;11.054;2023-03-17T04:30:58;7.20;;;3.77;;
5345;SDS011;2695;49.444;11.054;2023-03-17T04:33:26;9.73;;;3.50;;
5345;SDS011;2695;49.444;11.054;2023-03-17T04:35:54;5.57;;;3.73;;
5345;SDS011;2695;49.444;11.054;2023-03-17T04:38:25;6.03;;;3.90;;
5345;SDS011;2695;49.444;11.054;2023-03-17T04:40:53;4.13;;;3.07;;
5345;SDS011;2695;49.444;11.054;2023-03-17T04:43:21;14.93;;;3.30;;
5345;SDS011;2695;49.444;11.054;2023-03-17T04:45:49;7.80;;;3.40;;
5345;SDS011;2695;49.444;11.054;2023-03-17T04:48:17;5.40;;;3.63;;
5345;SDS011;2695;49.444;11.054;2023-03-17T04:50:45;5.23;;;3.20;;
5345;SDS011;2695;49.444;11.054;2023-03-17T04:53:13;5.03;;;3.00;;
5345;SDS011;2695;49.444;11.054;2023-03-17T04:55:43;9.00;;;3.60;;
5345;SDS011;2695;49.444;11.054;2023-03-17T04:58:11;7.23;;;4.20;;
5345;SDS011;2695;49.444;11.054;2023-03-17T05:00:55;5.50;;;3.77;;
5345;SDS011;2695;49.444;11.054;2023-03-17T05:03:24;9.33;;;4.03;;
5345;SDS011;2695;49.444;11.054;2023-03-17T05:05:54;5.13;;;3.73;;
5345;SDS011;2695;49.444;11.054;2023-03-17T05:08:22;8.63;;;4.03;;
5345;SDS011;2695;49.444;11.054;2023-03-17T05:10:52;5.97;;;3.93;;
5345;SDS011;2695;49.444;11.054;2023-03-17T05:13:20;8.77;;;4.30;;
5345;SDS011;2695;49.444;11.054;2023-03-17T05:15:49;4.60;;;3.10;;
5345;SDS011;2695;49.444;11.054;2023-03-17T05:18:18;5.07;;;3.57;;
5345;SDS011;2695;49.444;11.054;2023-03-17T05:20:48;6.47;;;3.57;;
5345;SDS011;2695;49.444;11.054;2023-03-17T05:23:16;8.33;;;3.87;;
5345;SDS011;2695;49.444;11.054;2023-03-17T05:25:44;8.40;;;4.80;;
5345;SDS011;2695;49.444;11.054;2023-03-17T05:28:14;4.50;;;3.77;;
5345;SDS011;2695;49.444;11.054;2023-03-17T05:30:43;5.53;;;3.70;;
5345;SDS011;2695;49.444;11.054;2023-03-17T05:33:11;9.50;;;3.80;;
5345;SDS011;2695;49.444;11.054;2023-03-17T05:35:40;8.20;;;4.20;;
5345;SDS011;2695;49.444;11.054;2023-03-17T05:38:09;9.50;;;3.50;;
5345;SDS011;2695;49.444;11.054;2023-03-17T05:40:38;6.70;;;3.40;;
5345;SDS011;2695;49.444;11.054;2023-03-17T05:43:07;5.30;;;3.20;;
5345;SDS011;2695;49.444;11.054;2023-03-17T05:45:36;5.70;;;2.70;;
5345;SDS011;2695;49.444;11.054;2023-03-17T05:48:05;3.80;;;2.60;;
5345;SDS011;2695;49.444;11.054;2023-03-17T05:50:33;4.97;;;3.00;;
5345;SDS011;2695;49.444;11.054;2023-03-17T05:53:01;9.00;;;3.90;;
5345;SDS011;2695;49.444;11.054;2023-03-17T05:55:29;5.60;;;3.33;;
5345;SDS011;2695;49.444;11.054;2023-03-17T05:57:57;8.50;;;2.67;;
5345;SDS011;2695;49.444;11.054;2023-03-17T06:00:26;10.67;;;3.57;;
5345;SDS011;2695;49.444;11.054;2023-03-17T06:02:56;3.80;;;2.90;;
5345;SDS011;2695;49.444;11.054;2023-03-17T06:05:24;4.87;;;2.70;;
5345;SDS011;2695;49.444;11.054;2023-03-17T06:07:52;5.53;;;3.10;;
5345;SDS011;2695;49.444;11.054;2023-03-17T06:10:21;3.77;;;2.67;;
5345;SDS011;2695;49.444;11.054;2023-03-17T06:12:49;5.33;;;3.57;;
5345;SDS011;2695;49.444;11.054;2023-03-17T06:15:18;5.63;;;3.40;;
5345;SDS011;2695;49.444;11.054;2023-03-17T06:17:46;3.77;;;3.20;;
5345;SDS011;2695;49.444;11.054;2023-03-17T06:20:16;3.33;;;2.47;;
5345;SDS011;2695;49.444;11.054;2023-03-17T06:22:44;8.50;;;3.00;;
5345;SDS011;2695;49.444;11.054;2023-03-17T06:25:29;6.80;;;3.23;;
5345;SDS011;2695;49.444;11.054;2023-03-17T06:27:58;3.93;;;2.30;;
5345;SDS011;2695;49.444;11.054;2023-03-17T06:30:28;5.07;;;3.20;;
5345;SDS011;2695;49.444;11.054;2023-03-17T06:32:57;6.77;;;3.13;;
5345;SDS011;2695;49.444;11.054;2023-03-17T06:35:28;3.00;;;2.70;;
5345;SDS011;2695;49.444;11.054;2023-03-17T06:37:57;4.00;;;2.67;;
5345;SDS011;2695;49.444;11.054;2023-03-17T06:40:26;3.70;;;2.70;;
5345;SDS011;2695;49.444;11.054;2023-03-17T06:42:54;7.23;;;2.70;;
5345;SDS011;2695;49.444;11.054;2023-03-17T06:45:22;4.63;;;2.83;;
5345;SDS011;2695;49.444;11.054;2023-03-17T06:47:50;5.43;;;2.87;;
5345;SDS011;2695;49.444;11.054;2023-03-17T06:50:20;6.57;;;2.40;;
5345;SDS011;2695;49.444;11.054;2023-03-17T06:52:52;3.87;;;2.60;;
5345;SDS011;2695;49.444;11.054;2023-03-17T06:55:22;4.07;;;2.73;;
5345;SDS011;2695;49.444;11.054;2023-03-17T06:57:50;4.43;;;2.20;;
5345;SDS011;2695;49.444;11.054;2023-03-17T07:00:18;6.13;;;2.60;;
5345;SDS011;2695;49.444;11.054;2023-03-17T07:02:47;5.97;;;2.37;;
5345;SDS011;2695;49.444;11.054;2023-03-17T07:05:16;3.50;;;2.80;;
5345;SDS011;2695;49.444;11.054;2023-03-17T07:07:45;6.50;;;2.80;;
5345;SDS011;2695;49.444;11.054;2023-03-17T07:10:16;5.30;;;2.73;;
5345;SDS011;2695;49.444;11.054;2023-03-17T07:12:44;7.17;;;2.80;;
5345;SDS011;2695;49.444;11.054;2023-03-17T07:15:12;7.33;;;2.73;;
5345;SDS011;2695;49.444;11.054;2023-03-17T07:17:42;7.53;;;3.93;;
5345;SDS011;2695;49.444;11.054;2023-03-17T07:20:12;14.80;;;3.07;;
5345;SDS011;2695;49.444;11.054;2023-03-17T07:22:40;10.30;;;3.30;;
5345;SDS011;2695;49.444;11.054;2023-03-17T07:25:09;4.63;;;2.47;;
5345;SDS011;2695;49.444;11.054;2023-03-17T07:27:39;4.63;;;2.27;;
5345;SDS011;2695;49.444;11.054;2023-03-17T07:30:08;5.10;;;2.70;;
5345;SDS011;2695;49.444;11.054;2023-03-17T07:32:38;4.33;;;2.00;;
5345;SDS011;2695;49.444;11.054;2023-03-17T07:35:07;4.73;;;2.00;;
5345;SDS011;2695;49.444;11.054;2023-03-17T07:37:35;8.43;;;1.97;;
5345;SDS011;2695;49.444;11.054;2023-03-17T07:40:03;4.83;;;2.10;;
5345;SDS011;2695;49.444;11.054;2023-03-17T07:42:34;2.97;;;1.63;;
5345;SDS011;2695;49.444;11.054;2023-03-17T07:45:04;5.20;;;1.60;;
5345;SDS011;2695;49.444;11.054;2023-03-17T07:47:36;2.50;;;1.80;;
5345;SDS011;2695;49.444;11.054;2023-03-17T07:50:09;3.27;;;2.30;;
5345;SDS011;2695;49.444;11.054;2023-03-17T07:52:38;3.00;;;2.03;;
5345;SDS011;2695;49.444;11.054;2023-03-17T07:55:06;3.53;;;1.50;;
5345;SDS011;2695;49.444;11.054;2023-03-17T07:57:37;2.60;;;1.33;;
5345;SDS011;2695;49.444;11.054;2023-03-17T08:00:08;1.97;;;1.60;;
5345;SDS011;2695;49.444;11.054;2023-03-17T08:02:39;4.50;;;1.90;;
5345;SDS011;2695;49.444;11.054;2023-03-17T08:05:07;3.80;;;1.87;;
5345;SDS011;2695;49.444;11.054;2023-03-17T08:07:36;3.10;;;1.83;;
5345;SDS011;2695;49.444;11.054;2023-03-17T08:10:05;2.53;;;1.47;;
5345;SDS011;2695;49.444;11.054;2023-03-17T08:12:34;2.60;;;1.50;;
5345;SDS011;2695;49.444;11.054;2023-03-17T08:15:02;5.70;;;2.13;;
5345;SDS011;2695;49.444;11.054;2023-03-17T08:17:33;3.37;;;1.30;;
5345;SDS011;2695;49.444;11.054;2023-03-17T08:20:02;4.80;;;1.40;;
5345;SDS011;2695;49.444;11.054;2023-03-17T08:22:31;3.00;;;1.63;;
5345;SDS011;2695;49.444;11.054;2023-03-17T08:24:59;3.97;;;1.77;;
5345;SDS011;2695;49.444;11.054;2023-03-17T08:27:27;3.00;;;1.60;;
5345;SDS011;2695;49.444;11.054;2023-03-17T08:29:59;4.00;;;1.80;;
5345;SDS011;2695;49.444;11.054;2023-03-17T08:32:27;5.23;;;2.00;;
5345;SDS011;2695;49.444;11.054;2023-03-17T08:34:56;7.50;;;2.17;;
5345;SDS011;2695;49.444;11.054;2023-03-17T08:37:25;2.40;;;1.57;;
5345;SDS011;2695;49.444;11.054;2023-03-17T08:39:53;5.30;;;1.87;;
5345;SDS011;2695;49.444;11.054;2023-03-17T08:42:21;5.57;;;2.30;;
5345;SDS011;2695;49.444;11.054;2023-03-17T08:44:49;4.67;;;1.60;;
5345;SDS011;2695;49.444;11.054;2023-03-17T08:47:17;4.07;;;1.70;;
5345;SDS011;2695;49.444;11.054;2023-03-17T08:49:45;1.50;;;1.10;;
5345;SDS011;2695;49.444;11.054;2023-03-17T08:52:15;1.93;;;1.30;;
5345;SDS011;2695;49.444;11.054;2023-03-17T08:54:43;3.37;;;1.60;;
5345;SDS011;2695;49.444;11.054;2023-03-17T08:57:12;3.10;;;1.30;;
5345;SDS011;2695;49.444;11.054;2023-03-17T08:59:41;2.67;;;1.63;;
5345;SDS011;2695;49.444;11.054;2023-03-17T09:02:09;3.63;;;1.57;;
5345;SDS011;2695;49.444;11.054;2023-03-17T09:04:38;2.50;;;1.60;;
5345;SDS011;2695;49.444;11.054;2023-03-17T09:07:07;1.57;;;1.20;;
5345;SDS011;2695;49.444;11.054;2023-03-17T09:09:37;2.17;;;1.50;;
5345;SDS011;2695;49.444;11.054;2023-03-17T09:12:06;2.47;;;1.20;;
5345;SDS011;2695;49.444;11.054;2023-03-17T09:14:34;2.00;;;1.47;;
5345;SDS011;2695;49.444;11.054;2023-03-17T09:17:09;1.87;;;1.17;;
5345;SDS011;2695;49.444;11.054;2023-03-17T09:19:39;2.30;;;1.20;;
5345;SDS011;2695;49.444;11.054;2023-03-17T09:22:10;3.03;;;1.30;;
5345;SDS011;2695;49.444;11.054;2023-03-17T09:24:41;3.20;;;1.10;;
5345;SDS011;2695;49.444;11.054;2023-03-17T09:27:10;1.83;;;1.30;;
5345;SDS011;2695;49.444;11.054;2023-03-17T09:29:40;8.27;;;1.90;;
5345;SDS011;2695;49.444;11.054;2023-03-17T09:32:08;4.33;;;1.50;;
5345;SDS011;2695;49.444;11.054;2023-03-17T09:34:36;3.70;;;1.67;;
5345;SDS011;2695;49.444;11.054;2023-03-17T09:37:05;2.40;;;1.23;;
5345;SDS011;2695;49.444;11.054;2023-03-17T09:39:35;1.37;;;1.20;;
5345;SDS011;2695;49.444;11.054;2023-03-17T09:42:07;2.00;;;1.10;;
5345;SDS011;2695;49.444;11.054;2023-03-17T09:44:48;3.53;;;1.50;;
5345;SDS011;2695;49.444;11.054;2023-03-17T09:47:32;2.58;;;1.80;;
5345;SDS011;2695;49.444;11.054;2023-03-17T09:50:09;2.25;;;1.38;;
5345;SDS011;2695;49.444;11.054;2023-03-17T09:52:42;1.92;;;1.35;;
5345;SDS011;2695;49.444;11.054;2023-03-17T09:55:16;2.55;;;1.45;;
5345;SDS011;2695;49.444;11.054;2023-03-17T09:57:55;9.60;;;1.80;;
5345;SDS011;2695;49.444;11.054;2023-03-17T10:00:26;1.73;;;1.50;;
5345;SDS011;2695;49.444;11.054;2023-03-17T10:02:57;1.92;;;1.30;;
5345;SDS011;2695;49.444;11.054;2023-03-17T10:05:27;2.85;;;1.30;;
5345;SDS011;2695;49.444;11.054;2023-03-17T10:08:00;3.58;;;1.73;;
5345;SDS011;2695;49.444;11.054;2023-03-17T10:10:56;1.92;;;1.20;;
5345;SDS011;2695;49.444;11.054;2023-03-17T10:13:33;1.23;;;1.10;;
5345;SDS011;2695;49.444;11.054;2023-03-17T10:16:16;3.55;;;1.35;;
5345;SDS011;2695;49.444;11.054;2023-03-17T10:18:48;1.65;;;1.15;;
5345;SDS011;2695;49.444;11.054;2023-03-17T10:21:26;2.75;;;1.25;;
5345;SDS011;2695;49.444;11.054;2023-03-17T10:23:58;1.23;;;1.00;;
5345;SDS011;2695;49.444;11.054;2023-03-17T10:26:28;2.07;;;1.57;;
5345;SDS011;2695;49.444;11.054;2023-03-17T10:29:01;4.80;;;1.47;;
5345;SDS011;2695;49.444;11.054;2023-03-17T10:31:31;2.60;;;1.83;;
5345;SDS011;2695;49.444;11.054;2023-03-17T10:34:13;2.80;;;1.47;;
5345;SDS011;2695;49.444;11.054;2023-03-17T10:36:44;2.70;;;1.70;;
5345;SDS011;2695;49.444;11.054;2023-03-17T10:39:17;3.70;;;1.90;;
5345;SDS011;2695;49.444;11.054;2023-03-17T10:41:51;3.03;;;1.43;;
5345;SDS011;2695;49.444;11.054;2023-03-17T10:49:58;2.53;;;1.60;;
5345;SDS011;2695;49.444;11.054;2023-03-17T10:52:32;2.90;;;1.37;;
5345;SDS011;2695;49.444;11.054;2023-03-17T10:55:05;1.10;;;1.00;;
5345;SDS011;2695;49.444;11.054;2023-03-17T10:57:36;2.60;;;1.57;;
5345;SDS011;2695;49.444;11.054;2023-03-17T11:00:12;3.70;;;1.70;;
5345;SDS011;2695;49.444;11.054;2023-03-17T11:02:46;3.27;;;1.43;;
5345;SDS011;2695;49.444;11.054;2023-03-17T11:05:19;1.40;;;1.20;;
5345;SDS011;2695;49.444;11.054;2023-03-17T11:07:50;1.47;;;1.37;;
5345;SDS011;2695;49.444;11.054;2023-03-17T11:10:25;1.10;;;1.00;;
5345;SDS011;2695;49.444;11.054;2023-03-17T11:13:02;1.67;;;1.10;;
5345;SDS011;2695;49.444;11.054;2023-03-17T11:15:34;1.83;;;1.27;;
5345;SDS011;2695;49.444;11.054;2023-03-17T11:18:10;2.03;;;1.10;;
5345;SDS011;2695;49.444;11.054;2023-03-17T11:20:44;1.23;;;1.03;;
5345;SDS011;2695;49.444;11.054;2023-03-17T11:23:20;1.57;;;1.00;;
5345;SDS011;2695;49.444;11.054;2023-03-17T11:26:00;2.43;;;1.50;;
5345;SDS011;2695;49.444;11.054;2023-03-17T11:28:38;2.50;;;1.30;;
5345;SDS011;2695;49.444;11.054;2023-03-17T11:31:12;2.03;;;1.20;;
5345;SDS011;2695;49.444;11.054;2023-03-17T11:33:47;1.67;;;1.10;;
5345;SDS011;2695;49.444;11.054;2023-03-17T11:36:35;2.53;;;1.00;;
5345;SDS011;2695;49.444;11.054;2023-03-17T11:39:13;2.60;;;0.80;;
5345;SDS011;2695;49.444;11.054;2023-03-17T11:41:47;10.03;;;5.20;;
5345;SDS011;2695;49.444;11.054;2023-03-17T11:44:30;1.53;;;1.37;;
5345;SDS011;2695;49.444;11.054;2023-03-17T11:47:34;3.00;;;1.30;;
5345;SDS011;2695;49.444;11.054;2023-03-17T11:50:15;3.03;;;1.20;;
5345;SDS011;2695;49.444;11.054;2023-03-17T11:52:55;5.17;;;1.17;;
5345;SDS011;2695;49.444;11.054;2023-03-17T11:55:35;1.53;;;1.10;;
5345;SDS011;2695;49.444;11.054;2023-03-17T11:58:12;2.13;;;1.03;;
5345;SDS011;2695;49.444;11.054;2023-03-17T12:00:46;3.13;;;1.83;;
5345;SDS011;2695;49.444;11.054;2023-03-17T12:03:22;1.80;;;1.30;;
5345;SDS011;2695;49.444;11.054;2023-03-17T12:06:10;2.73;;;1.20;;
5345;SDS011;2695;49.444;11.054;2023-03-17T12:08:46;1.73;;;1.00;;
5345;SDS011;2695;49.444;11.054;2023-03-17T12:11:22;2.33;;;1.10;;
5345;SDS011;2695;49.444;11.054;2023-03-17T12:13:55;6.53;;;1.30;;
5345;SDS011;2695;49.444;11.054;2023-03-17T12:16:30;2.40;;;1.00;;
5345;SDS011;2695;49.444;11.054;2023-03-17T12:19:06;1.27;;;1.17;;
5345;SDS011;2695;49.444;11.054;2023-03-17T12:21:44;1.80;;;1.00;;
5345;SDS011;2695;49.444;11.054;2023-03-17T12:24:20;2.00;;;1.40;;
5345;SDS011;2695;49.444;11.054;2023-03-17T12:27:08;1.73;;;1.00;;
5345;SDS011;2695;49.444;11.054;2023-03-17T12:29:50;2.77;;;0.70;;
5345;SDS011;2695;49.444;11.054;2023-03-17T12:32:28;2.07;;;0.80;;
5345;SDS011;2695;49.444;11.054;2023-03-17T12:35:10;2.73;;;0.90;;
5345;SDS011;2695;49.444;11.054;2023-03-17T12:37:52;1.27;;;1.10;;
5345;SDS011;2695;49.444;11.054;2023-03-17T12:40:23;2.60;;;1.00;;
5345;SDS011;2695;49.444;11.054;2023-03-17T12:42:59;0.80;;;0.63;;
5345;SDS011;2695;49.444;11.054;2023-03-17T12:45:51;1.93;;;1.10;;
5345;SDS011;2695;49.444;11.054;2023-03-17T12:48:43;1.10;;;1.00;;
5345;SDS011;2695;49.444;11.054;2023-03-17T12:51:47;1.93;;;0.90;;
5345;SDS011;2695;49.444;11.054;2023-03-17T12:54:26;2.00;;;1.07;;
5345;SDS011;2695;49.444;11.054;2023-03-17T12:56:59;1.30;;;1.00;;
5345;SDS011;2695;49.444;11.054;2023-03-17T12:59:29;1.10;;;1.00;;
5345;SDS011;2695;49.444;11.054;2023-03-17T13:02:11;1.27;;;0.90;;
5345;SDS011;2695;49.444;11.054;2023-03-17T13:04:47;1.63;;;0.87;;
5345;SDS011;2695;49.444;11.054;2023-03-17T13:07:24;1.70;;;1.00;;
5345;SDS011;2695;49.444;11.054;2023-03-17T13:10:17;1.47;;;0.93;;
5345;SDS011;2695;49.444;11.054;2023-03-17T13:13:14;2.00;;;1.07;;
5345;SDS011;2695;49.444;11.054;2023-03-17T13:15:55;1.97;;;1.20;;
5345;SDS011;2695;49.444;11.054;2023-03-17T13:21:24;1.83;;;1.03;;
5345;SDS011;2695;49.444;11.054;2023-03-17T13:23:59;1.20;;;0.90;;
5345;SDS011;2695;49.444;11.054;2023-03-17T13:26:54;1.70;;;1.20;;
5345;SDS011;2695;49.444;11.054;2023-03-17T13:35:15;2.53;;;1.50;;
5345;SDS011;2695;49.444;11.054;2023-03-17T13:37:49;1.20;;;1.00;;
5345;SDS011;2695;49.444;11.054;2023-03-17T13:40:35;1.63;;;1.00;;
5345;SDS011;2695;49.444;11.054;2023-03-17T13:43:16;1.33;;;1.23;;
5345;SDS011;2695;49.444;11.054;2023-03-17T13:48:50;1.37;;;0.97;;
5345;SDS011;2695;49.444;11.054;2023-03-17T13:51:20;2.83;;;1.30;;
5345;SDS011;2695;49.444;11.054;2023-03-17T13:53:52;1.10;;;0.70;;
5345;SDS011;2695;49.444;11.054;2023-03-17T13:56:24;1.33;;;1.13;;
5345;SDS011;2695;49.444;11.054;2023-03-17T13:59:06;1.73;;;0.90;;
5345;SDS011;2695;49.444;11.054;2023-03-17T14:01:40;2.23;;;1.10;;
5345;SDS011;2695;49.444;11.054;2023-03-17T14:04:16;1.13;;;1.00;;
5345;SDS011;2695;49.444;11.054;2023-03-17T14:06:47;3.70;;;1.03;;
5345;SDS011;2695;49.444;11.054;2023-03-17T14:09:21;1.00;;;0.90;;
5345;SDS011;2695;49.444;11.054;2023-03-17T14:11:59;0.80;;;0.80;;
5345;SDS011;2695;49.444;11.054;2023-03-17T14:14:33;3.30;;;1.20;;
5345;SDS011;2695;49.444;11.054;2023-03-17T14:17:09;1.53;;;0.90;;
5345;SDS011;2695;49.444;11.054;2023-03-17T14:19:41;3.27;;;1.20;;
5345;SDS011;2695;49.444;11.054;2023-03-17T14:22:29;1.57;;;0.90;;
5345;SDS011;2695;49.444;11.054;2023-03-17T14:24:58;2.97;;;0.97;;
5345;SDS011;2695;49.444;11.054;2023-03-17T14:27:31;3.50;;;1.50;;
5345;SDS011;2695;49.444;11.054;2023-03-17T14:30:04;3.40;;;1.33;;
5345;SDS011;2695;49.444;11.054;2023-03-17T14:32:34;2.93;;;1.10;;
5345;SDS011;2695;49.444;11.054;2023-03-17T14:35:02;5.13;;;1.77;;
5345;SDS011;2695;49.444;11.054;2023-03-17T14:37:30;8.23;;;1.90;;
5345;SDS011;2695;49.444;11.054;2023-03-17T14:39:58;4.83;;;1.00;;
5345;SDS011;2695;49.444;11.054;2023-03-17T14:42:27;11.40;;;1.53;;
5345;SDS011;2695;49.444;11.054;2023-03-17T14:44:59;3.30;;;1.37;;
5345;SDS011;2695;49.444;11.054;2023-03-17T14:47:30;1.70;;;1.13;;
5345;SDS011;2695;49.444;11.054;2023-03-17T14:50:03;1.80;;;1.07;;
5345;SDS011;2695;49.444;11.054;2023-03-17T14:52:40;1.77;;;1.10;;
5345;SDS011;2695;49.444;11.054;2023-03-17T14:55:11;2.03;;;1.20;;
5345;SDS011;2695;49.444;11.054;2023-03-17T14:57:46;1.70;;;1.00;;
5345;SDS011;2695;49.444;11.054;2023-03-17T15:00:25;2.70;;;1.20;;
5345;SDS011;2695;49.444;11.054;2023-03-17T15:03:00;1.60;;;1.07;;
5345;SDS011;2695;49.444;11.054;2023-03-17T15:05:35;1.10;;;1.00;;
5345;SDS011;2695;49.444;11.054;2023-03-17T15:10:56;4.33;;;1.40;;
5345;SDS011;2695;49.444;11.054;2023-03-17T15:13:27;1.53;;;1.13;;
5345;SDS011;2695;49.444;11.054;2023-03-17T15:16:04;0.97;;;0.87;;
5345;SDS011;2695;49.444;11.054;2023-03-17T15:18:41;1.90;;;1.00;;
5345;SDS011;2695;49.444;11.054;2023-03-17T15:21:22;2.73;;;1.20;;
5345;SDS011;2695;49.444;11.054;2023-03-17T15:23:54;2.00;;;1.20;;
5345;SDS011;2695;49.444;11.054;2023-03-17T15:26:23;0.90;;;0.90;;
5345;SDS011;2695;49.444;11.054;2023-03-17T15:28:58;3.63;;;1.30;;
5345;SDS011;2695;49.444;11.054;2023-03-17T15:31:27;1.40;;;1.30;;
5345;SDS011;2695;49.444;11.054;2023-03-17T15:33:56;3.77;;;1.20;;
5345;SDS011;2695;49.444;11.054;2023-03-17T15:36:24;1.30;;;1.20;;
5345;SDS011;2695;49.444;11.054;2023-03-17T15:38:58;2.60;;;1.10;;
5345;SDS011;2695;49.444;11.054;2023-03-17T15:41:26;1.10;;;1.00;;
5345;SDS011;2695;49.444;11.054;2023-03-17T15:43:55;3.57;;;0.87;;
5345;SDS011;2695;49.444;11.054;2023-03-17T15:46:26;1.30;;;1.00;;
5345;SDS011;2695;49.444;11.054;2023-03-17T15:48:57;1.00;;;0.90;;
5345;SDS011;2695;49.444;11.054;2023-03-17T15:51:26;2.00;;;1.13;;